createdAt,value
2022-11-22T00:00:51.458Z,4.07
2022-11-22T00:03:19.011Z,5.30
2022-11-22T00:05:46.484Z,4.95
2022-11-22T00:08:14.147Z,4.30
2022-11-22T00:10:41.638Z,4.75
2022-11-22T00:13:09.661Z,4.70
2022-11-22T00:15:37.979Z,5.38
2022-11-22T00:18:05.814Z,5.30
2022-11-22T00:20:35.683Z,4.20
2022-11-22T00:23:03.942Z,5.47
2022-11-22T00:25:32.094Z,5.43
2022-11-22T00:28:00.215Z,5.82
2022-11-22T00:30:27.722Z,6.55
2022-11-22T00:32:55.376Z,4.78
2022-11-22T00:35:23.155Z,4.88
2022-11-22T00:37:50.740Z,5.22
2022-11-22T00:40:18.352Z,5.45
2022-11-22T00:42:45.836Z,5.78
2022-11-22T00:45:13.424Z,5.45
2022-11-22T00:47:40.926Z,5.60
2022-11-22T00:50:08.753Z,4.55
2022-11-22T00:52:36.284Z,5.03
2022-11-22T00:55:03.854Z,4.95
2022-11-22T00:57:31.377Z,6.60
2022-11-22T00:59:59.214Z,4.85
2022-11-22T01:02:26.919Z,4.72
2022-11-22T01:04:54.601Z,6.43
2022-11-22T01:07:22.129Z,4.97
2022-11-22T01:09:49.675Z,5.60
2022-11-22T01:12:17.253Z,6.15
2022-11-22T01:14:44.699Z,5.85
2022-11-22T01:17:12.246Z,6.72
2022-11-22T01:19:39.795Z,6.43
2022-11-22T01:22:07.315Z,6.70
2022-11-22T01:24:34.827Z,6.15
2022-11-22T01:27:02.334Z,5.22
2022-11-22T01:29:30.361Z,7.00
2022-11-22T01:31:58.095Z,5.07
2022-11-22T01:34:25.630Z,5.38
2022-11-22T01:36:53.184Z,5.43
2022-11-22T01:39:20.774Z,6.15
2022-11-22T01:41:48.331Z,5.50
2022-11-22T01:44:23.401Z,4.90
2022-11-22T01:46:58.699Z,5.68
2022-11-22T01:49:34.874Z,5.75
2022-11-22T01:52:10.959Z,4.75
2022-11-22T01:54:43.018Z,5.07
2022-11-22T01:57:17.072Z,4.07
2022-11-22T01:59:51.948Z,4.28
2022-11-22T02:02:19.605Z,4.00
2022-11-22T02:04:48.229Z,4.85
2022-11-22T02:07:23.659Z,4.78
2022-11-22T02:09:54.099Z,3.95
2022-11-22T02:12:29.068Z,3.38
2022-11-22T02:14:57.494Z,4.95
2022-11-22T02:17:28.282Z,3.53
2022-11-22T02:19:56.550Z,4.00
2022-11-22T02:22:45.562Z,3.65
2022-11-22T02:25:24.799Z,2.85
2022-11-22T02:27:52.692Z,3.30
2022-11-22T02:30:20.544Z,4.15
2022-11-22T02:32:48.132Z,3.33
2022-11-22T02:35:24.647Z,2.85
2022-11-22T02:38:32.651Z,2.25
2022-11-22T02:41:04.285Z,2.65
2022-11-22T02:43:35.689Z,2.70
2022-11-22T02:46:12.623Z,1.92
2022-11-22T02:48:44.482Z,2.80
2022-11-22T02:51:16.743Z,3.22
2022-11-22T02:53:45.014Z,1.52
2022-11-22T02:56:12.744Z,2.28
2022-11-22T02:58:40.247Z,2.42
2022-11-22T03:01:07.877Z,1.80
2022-11-22T03:03:35.534Z,1.67
2022-11-22T03:06:03.419Z,2.50
2022-11-22T03:08:31.157Z,3.67
2022-11-22T03:10:59.737Z,3.13
2022-11-22T03:13:27.979Z,2.38
2022-11-22T03:15:55.597Z,2.45
2022-11-22T03:18:23.794Z,2.50
2022-11-22T03:20:51.250Z,1.92
2022-11-22T03:23:18.936Z,3.25
2022-11-22T03:25:46.417Z,1.77
2022-11-22T03:28:13.941Z,2.00
2022-11-22T03:30:42.652Z,2.28
2022-11-22T03:33:10.971Z,1.60
2022-11-22T03:35:38.825Z,2.75
2022-11-22T03:38:07.052Z,1.92
2022-11-22T03:40:34.918Z,1.90
2022-11-22T03:43:03.344Z,1.88
2022-11-22T03:45:30.987Z,2.67
2022-11-22T03:47:58.692Z,1.65
2022-11-22T03:50:26.801Z,2.33
2022-11-22T03:52:54.250Z,1.30
2022-11-22T03:55:21.771Z,1.40
2022-11-22T03:57:49.252Z,2.85
2022-11-22T04:00:16.984Z,1.35
2022-11-22T04:02:44.524Z,2.03
2022-11-22T04:05:12.096Z,1.15
2022-11-22T04:07:39.694Z,1.35
2022-11-22T04:10:07.725Z,1.67
2022-11-22T04:12:35.519Z,2.05
2022-11-22T04:15:08.463Z,1.48
2022-11-22T04:17:41.736Z,1.85
2022-11-22T04:20:29.296Z,1.40
2022-11-22T04:22:58.468Z,3.55
2022-11-22T04:25:27.319Z,2.53
2022-11-22T04:27:55.073Z,1.40
2022-11-22T04:30:43.100Z,1.30
2022-11-22T04:33:10.891Z,1.88
2022-11-22T04:35:39.428Z,3.10
2022-11-22T04:38:07.539Z,1.83
2022-11-22T04:40:35.581Z,1.42
2022-11-22T04:43:20.887Z,1.35
2022-11-22T04:45:48.865Z,1.67
2022-11-22T04:48:19.907Z,1.75
2022-11-22T04:51:05.161Z,2.08
2022-11-22T04:53:32.646Z,1.30
2022-11-22T04:56:00.425Z,1.80
2022-11-22T04:58:27.998Z,1.65
2022-11-22T05:00:55.592Z,1.55
2022-11-22T05:03:23.276Z,1.00
2022-11-22T05:05:50.764Z,2.88
2022-11-22T05:08:18.280Z,1.50
2022-11-22T05:10:57.891Z,1.30
2022-11-22T05:13:33.231Z,1.23
2022-11-22T05:16:02.567Z,1.80
2022-11-22T05:18:30.731Z,2.42
2022-11-22T05:21:00.145Z,1.63
2022-11-22T05:23:45.177Z,2.20
2022-11-22T05:26:12.671Z,1.15
2022-11-22T05:28:40.920Z,1.70
2022-11-22T05:31:09.377Z,1.10
2022-11-22T05:33:38.544Z,1.00
2022-11-22T05:36:06.985Z,1.10
2022-11-22T05:38:37.533Z,1.80
2022-11-22T05:41:06.604Z,1.58
2022-11-22T05:43:34.541Z,2.45
2022-11-22T05:46:18.338Z,1.67
2022-11-22T05:48:49.995Z,1.20
2022-11-22T05:51:19.835Z,1.40
2022-11-22T05:53:47.724Z,1.10
2022-11-22T05:56:21.739Z,1.40
2022-11-22T05:58:49.755Z,1.23
2022-11-22T06:01:22.970Z,1.30
2022-11-22T06:03:51.324Z,2.50
2022-11-22T06:06:19.523Z,2.53
2022-11-22T06:08:48.665Z,1.40
2022-11-22T06:11:21.328Z,1.65
2022-11-22T06:16:17.418Z,1.70
2022-11-22T06:18:45.319Z,1.73
2022-11-22T06:21:15.628Z,3.55
2022-11-22T06:23:43.773Z,1.92
2022-11-22T06:26:17.851Z,3.58
2022-11-22T06:28:46.137Z,1.73
2022-11-22T06:31:16.263Z,1.45
2022-11-22T06:33:45.061Z,1.67
2022-11-22T06:36:15.638Z,2.17
2022-11-22T06:38:44.140Z,1.60
2022-11-22T06:41:14.407Z,2.58
2022-11-22T06:43:48.214Z,2.25
2022-11-22T06:46:18.721Z,1.38
2022-11-22T06:48:46.913Z,1.45
2022-11-22T06:51:17.567Z,1.67
2022-11-22T06:53:48.307Z,2.03
2022-11-22T06:56:45.876Z,1.25
2022-11-22T06:59:13.483Z,1.98
2022-11-22T07:01:41.091Z,2.42
2022-11-22T07:04:08.640Z,1.58
2022-11-22T07:06:38.503Z,1.40
2022-11-22T07:09:09.372Z,1.70
2022-11-22T07:11:37.628Z,2.08
2022-11-22T07:14:08.720Z,2.55
2022-11-22T07:16:38.099Z,1.50
2022-11-22T07:19:06.589Z,1.42
2022-11-22T07:21:34.127Z,1.60
2022-11-22T07:24:01.671Z,2.17
2022-11-22T07:26:29.185Z,1.35
2022-11-22T07:28:56.725Z,1.10
2022-11-22T07:31:24.170Z,3.33
2022-11-22T07:33:51.671Z,1.35
2022-11-22T07:36:21.626Z,1.25
2022-11-22T07:38:50.384Z,2.88
2022-11-22T07:41:19.456Z,1.70
2022-11-22T07:43:47.555Z,2.28
2022-11-22T07:46:29.572Z,1.30
2022-11-22T07:48:57.707Z,1.52
2022-11-22T07:51:25.475Z,1.55
2022-11-22T07:53:53.002Z,1.42
2022-11-22T07:56:20.580Z,1.23
2022-11-22T07:58:48.324Z,1.50
2022-11-22T08:01:18.564Z,1.40
2022-11-22T08:03:46.528Z,1.90
2022-11-22T08:06:15.313Z,1.70
2022-11-22T08:08:42.932Z,1.45
2022-11-22T08:11:11.242Z,1.02
2022-11-22T08:13:38.918Z,1.38
2022-11-22T08:16:17.588Z,1.60
2022-11-22T08:18:49.966Z,1.27
2022-11-22T08:23:46.345Z,1.52
2022-11-22T08:26:15.822Z,2.15
2022-11-22T08:28:44.239Z,1.48
2022-11-22T08:31:19.023Z,1.88
2022-11-22T08:33:47.635Z,1.70
2022-11-22T08:36:15.398Z,1.50
2022-11-22T08:38:43.049Z,1.60
2022-11-22T08:41:11.334Z,1.58
2022-11-22T08:43:39.119Z,1.20
2022-11-22T08:46:07.149Z,2.53
2022-11-22T08:48:36.729Z,1.20
2022-11-22T08:51:07.649Z,1.88
2022-11-22T08:53:37.397Z,1.02
2022-11-22T08:56:09.580Z,2.08
2022-11-22T08:58:37.775Z,1.63
2022-11-22T09:01:10.478Z,1.50
2022-11-22T09:03:38.924Z,1.10
2022-11-22T09:09:22.103Z,1.92
2022-11-22T09:11:44.952Z,2.47
2022-11-22T09:14:12.992Z,1.60
2022-11-22T09:16:40.496Z,1.80
2022-11-22T09:19:08.001Z,1.60
2022-11-22T09:21:35.517Z,1.92
2022-11-22T09:24:03.052Z,1.50
2022-11-22T09:26:31.709Z,1.60
2022-11-22T09:28:59.226Z,1.20
2022-11-22T09:31:26.822Z,1.38
2022-11-22T09:33:54.338Z,1.42
2022-11-22T09:36:26.206Z,2.58
2022-11-22T09:38:54.332Z,1.30
2022-11-22T09:42:05.049Z,1.05
2022-11-22T09:44:58.169Z,1.98
2022-11-22T09:48:09.399Z,2.65
2022-11-22T09:50:52.749Z,1.60
2022-11-22T09:53:49.802Z,1.60
2022-11-22T09:56:21.106Z,0.93
2022-11-22T09:58:53.932Z,1.30
2022-11-22T10:01:28.313Z,1.13
2022-11-22T10:04:04.040Z,1.10
2022-11-22T10:06:36.819Z,1.05
2022-11-22T10:09:29.492Z,2.10
2022-11-22T10:14:53.655Z,1.20
2022-11-22T10:17:50.152Z,1.55
2022-11-22T10:20:25.730Z,0.98
2022-11-22T10:22:53.919Z,1.00
2022-11-22T10:25:23.865Z,2.15
2022-11-22T10:28:01.685Z,1.23
2022-11-22T10:30:36.916Z,1.20
2022-11-22T10:33:14.115Z,0.82
2022-11-22T10:35:57.557Z,0.90
2022-11-22T10:38:25.856Z,1.10
2022-11-22T10:41:16.867Z,2.00
2022-11-22T10:44:18.277Z,1.00
2022-11-22T10:46:59.779Z,0.88
2022-11-22T10:49:51.929Z,1.77
2022-11-22T10:52:41.086Z,1.20
2022-11-22T10:55:46.055Z,1.17
2022-11-22T10:58:30.317Z,1.20
2022-11-22T11:01:08.102Z,1.27
2022-11-22T11:03:40.019Z,0.90
2022-11-22T11:12:00.919Z,1.52
2022-11-22T11:14:39.865Z,0.88
2022-11-22T11:17:07.959Z,1.10
2022-11-22T11:19:40.168Z,1.10
2022-11-22T11:22:10.783Z,1.15
2022-11-22T11:24:41.809Z,1.20
2022-11-22T11:27:12.018Z,0.88
2022-11-22T11:29:44.481Z,1.00
2022-11-22T11:32:14.726Z,0.82
2022-11-22T11:35:09.664Z,1.50
2022-11-22T11:37:39.690Z,1.40
2022-11-22T11:40:28.837Z,0.68
2022-11-22T11:43:16.798Z,0.70
2022-11-22T11:45:44.553Z,1.25
2022-11-22T11:48:37.526Z,0.90
2022-11-22T11:51:16.969Z,1.20
2022-11-22T11:53:52.530Z,1.00
2022-11-22T11:56:33.139Z,1.30
2022-11-22T11:59:04.512Z,0.90
2022-11-22T12:01:38.784Z,1.08
2022-11-22T12:04:07.697Z,0.70
2022-11-22T12:06:35.219Z,1.38
2022-11-22T12:09:13.913Z,0.80
2022-11-22T12:11:50.062Z,1.08
2022-11-22T12:14:37.745Z,1.60
2022-11-22T12:17:27.258Z,0.75
2022-11-22T12:20:07.102Z,0.57
2022-11-22T12:22:50.328Z,0.70
2022-11-22T12:25:39.906Z,1.13
2022-11-22T12:28:21.594Z,0.63
2022-11-22T12:31:19.749Z,0.70
2022-11-22T12:33:58.478Z,0.90
2022-11-22T12:36:44.645Z,1.15
2022-11-22T12:39:23.021Z,0.70
2022-11-22T12:41:58.066Z,0.65
2022-11-22T12:44:37.941Z,0.85
2022-11-22T12:47:13.234Z,0.50
2022-11-22T12:50:04.043Z,0.55
2022-11-22T12:52:43.291Z,0.68
2022-11-22T12:55:22.229Z,0.57
2022-11-22T12:58:17.725Z,0.68
2022-11-22T13:01:00.440Z,0.60
2022-11-22T13:03:36.737Z,0.60
2022-11-22T13:06:08.588Z,0.57
2022-11-22T13:08:53.253Z,0.50
2022-11-22T13:11:40.759Z,0.50
2022-11-22T13:14:21.285Z,0.50
2022-11-22T13:16:51.556Z,0.95
2022-11-22T13:19:24.460Z,0.70
2022-11-22T13:22:17.344Z,0.98
2022-11-22T13:25:15.990Z,0.50
2022-11-22T13:27:50.325Z,1.02
2022-11-22T13:30:24.217Z,3.10
2022-11-22T13:32:54.556Z,0.80
2022-11-22T13:35:29.078Z,0.47
2022-11-22T13:38:03.884Z,0.35
2022-11-22T13:40:34.975Z,0.50
2022-11-22T13:43:46.137Z,0.45
2022-11-22T13:46:53.860Z,0.40
2022-11-22T13:49:41.208Z,0.47
2022-11-22T13:52:18.261Z,0.50
2022-11-22T13:54:48.706Z,0.40
2022-11-22T13:57:37.658Z,0.35
2022-11-22T14:00:41.172Z,0.85
2022-11-22T14:03:17.623Z,0.60
2022-11-22T14:05:50.457Z,0.38
2022-11-22T14:08:40.306Z,0.40
2022-11-22T14:11:15.788Z,0.25
2022-11-22T14:13:52.380Z,0.30
2022-11-22T14:16:41.209Z,0.60
2022-11-22T14:19:24.397Z,0.47
2022-11-22T14:22:08.652Z,0.93
2022-11-22T14:25:04.468Z,0.60
2022-11-22T14:27:50.740Z,0.50
2022-11-22T14:30:18.507Z,0.50
2022-11-22T14:33:05.959Z,0.38
2022-11-22T14:35:38.678Z,0.30
2022-11-22T14:38:29.250Z,0.30
2022-11-22T14:41:27.781Z,0.40
2022-11-22T14:44:22.325Z,0.40
2022-11-22T14:46:56.582Z,0.30
2022-11-22T14:49:40.966Z,0.20
2022-11-22T14:52:21.513Z,0.60
2022-11-22T14:54:53.985Z,0.40
2022-11-22T14:57:24.677Z,0.55
2022-11-22T15:00:03.803Z,0.45
2022-11-22T15:03:00.452Z,0.47
2022-11-22T15:09:10.828Z,0.40
2022-11-22T15:09:15.368Z,0.50
2022-11-22T15:11:45.142Z,0.43
2022-11-22T15:14:56.972Z,0.38
2022-11-22T15:58:13.929Z,0.60
2022-11-22T16:00:44.821Z,0.60
2022-11-22T16:03:23.622Z,0.40
2022-11-22T16:06:10.195Z,0.82
2022-11-22T16:08:39.398Z,0.60
2022-11-22T16:11:07.425Z,1.15
2022-11-22T16:13:37.255Z,0.68
2022-11-22T16:16:13.839Z,0.93
2022-11-22T16:18:43.741Z,0.40
2022-11-22T16:21:11.341Z,0.63
2022-11-22T16:23:45.060Z,0.77
2022-11-22T16:26:24.704Z,0.70
2022-11-22T16:28:54.589Z,0.80
2022-11-22T16:31:31.321Z,1.52
2022-11-22T16:33:59.748Z,1.05
2022-11-22T16:36:30.696Z,0.77
2022-11-22T16:38:58.784Z,0.90
2022-11-22T16:41:28.794Z,0.80
2022-11-22T16:44:00.716Z,0.82
2022-11-22T16:46:28.424Z,1.10
2022-11-22T16:48:57.140Z,1.10
2022-11-22T16:51:28.426Z,0.90
2022-11-22T16:53:59.911Z,1.00
2022-11-22T16:56:30.622Z,1.30
2022-11-22T16:58:59.505Z,1.02
2022-11-22T17:01:32.604Z,1.27
2022-11-22T17:04:02.843Z,1.20
2022-11-22T17:06:32.515Z,0.90
2022-11-22T17:09:01.153Z,1.88
2022-11-22T17:11:32.013Z,1.80
2022-11-22T17:14:01.045Z,1.08
2022-11-22T17:16:29.065Z,1.85
2022-11-22T17:18:56.720Z,1.70
2022-11-22T17:21:35.833Z,1.67
2022-11-22T17:24:07.330Z,1.23
2022-11-22T17:26:35.673Z,1.60
2022-11-22T17:29:03.242Z,1.88
2022-11-22T17:31:31.128Z,1.50
2022-11-22T17:33:59.933Z,1.85
2022-11-22T17:36:27.507Z,2.03
2022-11-22T17:38:55.281Z,2.10
2022-11-22T17:41:23.099Z,2.20
2022-11-22T17:43:51.607Z,2.15
2022-11-22T17:46:20.228Z,2.08
2022-11-22T17:49:00.092Z,2.85
2022-11-22T17:51:29.135Z,2.53
2022-11-22T17:53:58.153Z,2.38
2022-11-22T17:56:27.074Z,3.05
2022-11-22T17:58:54.541Z,3.58
2022-11-22T18:01:23.982Z,3.40
2022-11-22T18:03:52.043Z,3.20
2022-11-22T18:06:21.746Z,3.10
2022-11-22T18:08:49.521Z,3.20
2022-11-22T18:11:17.411Z,3.22
2022-11-22T18:13:45.371Z,3.50
2022-11-22T18:16:15.738Z,4.30
2022-11-22T18:18:59.541Z,4.35
2022-11-22T18:21:30.227Z,4.47
2022-11-22T18:24:00.162Z,3.17
2022-11-22T18:26:39.275Z,3.75
2022-11-22T18:31:55.860Z,3.65
2022-11-22T18:34:24.357Z,4.10
2022-11-22T18:36:55.828Z,3.13
2022-11-22T18:39:25.489Z,2.95
2022-11-22T18:41:53.309Z,3.03
2022-11-22T18:44:20.986Z,3.20
2022-11-22T18:46:48.753Z,3.25
2022-11-22T18:49:16.316Z,3.47
2022-11-22T18:51:43.965Z,2.95
2022-11-22T18:54:11.588Z,5.20
2022-11-22T18:56:40.549Z,2.90
2022-11-22T18:59:12.621Z,3.17
2022-11-22T19:01:41.029Z,1.83
2022-11-22T19:04:08.941Z,1.95
2022-11-22T19:06:36.484Z,2.60
2022-11-22T19:09:04.621Z,2.53
2022-11-22T19:11:32.786Z,2.15
2022-11-22T19:14:00.715Z,2.50
2022-11-22T19:16:30.214Z,2.65
2022-11-22T19:18:58.784Z,2.15
2022-11-22T19:21:28.328Z,2.65
2022-11-22T19:23:57.094Z,3.13
2022-11-22T19:26:26.982Z,3.25
2022-11-22T19:28:57.647Z,2.55
2022-11-22T19:31:28.969Z,2.15
2022-11-22T19:33:57.135Z,1.83
2022-11-22T19:36:32.214Z,2.90
2022-11-22T19:39:02.243Z,2.40
2022-11-22T19:41:30.862Z,3.08
2022-11-22T19:43:58.422Z,2.85
2022-11-22T19:46:26.517Z,3.17
2022-11-22T19:48:55.551Z,2.55
2022-11-22T19:51:24.129Z,2.97
2022-11-22T19:53:58.681Z,3.30
2022-11-22T19:56:30.111Z,2.90
2022-11-22T19:58:59.373Z,3.53
2022-11-22T20:01:29.261Z,3.28
2022-11-22T20:04:05.853Z,3.05
2022-11-22T20:06:34.905Z,4.90
2022-11-22T20:09:20.167Z,5.05
2022-11-22T20:11:47.674Z,4.80
2022-11-22T20:14:15.203Z,4.97
2022-11-22T20:16:42.893Z,4.00
2022-11-22T20:19:12.239Z,3.35
2022-11-22T20:21:40.529Z,3.85
2022-11-22T20:24:08.490Z,3.08
2022-11-22T20:26:36.461Z,2.75
2022-11-22T20:29:07.289Z,4.10
2022-11-22T20:31:36.773Z,3.75
2022-11-22T20:34:04.939Z,2.42
2022-11-22T20:36:34.539Z,3.67
2022-11-22T20:39:08.384Z,3.42
2022-11-22T20:41:37.428Z,2.67
2022-11-22T20:44:05.117Z,2.40
2022-11-22T20:46:32.605Z,3.33
2022-11-22T20:49:00.017Z,2.85
2022-11-22T20:51:29.030Z,3.10
2022-11-22T20:53:57.966Z,4.00
2022-11-22T20:56:26.172Z,2.78
2022-11-22T20:58:54.174Z,3.90
2022-11-22T21:01:25.382Z,3.13
2022-11-22T21:03:54.410Z,2.95
2022-11-22T21:06:24.061Z,4.20
2022-11-22T21:08:52.045Z,4.00
2022-11-22T21:11:22.012Z,3.95
2022-11-22T21:13:50.365Z,3.88
2022-11-22T21:16:24.636Z,3.05
2022-11-22T21:18:57.558Z,3.60
2022-11-22T21:21:26.353Z,3.58
2022-11-22T21:23:56.057Z,4.60
2022-11-22T21:26:25.156Z,4.80
2022-11-22T21:28:53.769Z,4.25
2022-11-22T21:31:22.859Z,4.10
2022-11-22T21:33:50.764Z,4.38
2022-11-22T21:36:19.236Z,3.67
2022-11-22T21:38:46.833Z,5.40
2022-11-22T21:44:08.065Z,4.03
2022-11-22T21:46:35.604Z,3.88
2022-11-22T21:49:03.138Z,3.80
2022-11-22T21:51:31.825Z,3.88
2022-11-22T21:54:00.262Z,3.50
2022-11-22T21:56:28.382Z,4.95
2022-11-22T21:58:55.918Z,4.07
2022-11-22T22:01:24.401Z,3.53
2022-11-22T22:03:52.507Z,4.20
2022-11-22T22:06:20.304Z,3.42
2022-11-22T22:08:47.857Z,3.28
2022-11-22T22:11:15.665Z,3.88
2022-11-22T22:13:43.207Z,3.60
2022-11-22T22:16:15.675Z,3.88
2022-11-22T22:18:43.649Z,3.70
2022-11-22T22:21:13.633Z,5.15
2022-11-22T22:23:43.248Z,4.28
2022-11-22T22:26:16.157Z,4.00
2022-11-22T22:28:45.006Z,5.10
2022-11-22T22:31:23.653Z,4.85
2022-11-22T22:33:53.927Z,7.68
2022-11-22T22:36:22.628Z,7.07
2022-11-22T22:38:50.790Z,6.13
2022-11-22T22:41:18.968Z,5.93
2022-11-22T22:43:49.156Z,5.78
2022-11-22T22:46:22.277Z,6.60
2022-11-22T22:48:51.993Z,6.95
2022-11-22T22:51:27.577Z,8.13
2022-11-22T22:54:00.550Z,6.30
2022-11-22T22:56:30.437Z,6.30
2022-11-22T22:59:00.974Z,7.25
2022-11-22T23:01:31.200Z,7.95
2022-11-22T23:04:00.797Z,6.63
2022-11-22T23:06:34.402Z,7.97
2022-11-22T23:09:03.514Z,7.05
2022-11-22T23:11:50.839Z,10.55
2022-11-22T23:14:21.353Z,8.93
2022-11-22T23:16:53.182Z,10.65
2022-11-22T23:19:24.036Z,10.90
2022-11-22T23:21:51.684Z,9.38
2022-11-22T23:24:19.222Z,9.43
2022-11-22T23:26:46.863Z,10.00
2022-11-22T23:29:14.695Z,10.38
2022-11-22T23:31:42.314Z,10.40
2022-11-22T23:34:12.092Z,9.35
2022-11-22T23:36:41.233Z,10.32
2022-11-22T23:39:09.730Z,9.40
2022-11-22T23:41:37.269Z,11.10
2022-11-22T23:44:05.099Z,10.25
2022-11-22T23:46:32.937Z,8.30
2022-11-22T23:49:02.215Z,10.32
2022-11-22T23:51:30.985Z,9.27
2022-11-22T23:54:00.946Z,9.98
2022-11-22T23:56:30.478Z,9.77
2022-11-22T23:59:02.109Z,10.95
